createdAt,value
2018-07-28T00:01:42.846Z,100410.94
2018-07-28T00:04:10.977Z,100404.54
2018-07-28T00:06:39.624Z,100401.08
2018-07-28T00:09:09.437Z,100404.77
2018-07-28T00:11:37.891Z,100403.83
2018-07-28T00:14:06.393Z,100400.44
2018-07-28T00:16:35.100Z,100400.59
2018-07-28T00:19:03.838Z,100408.18
2018-07-28T00:21:32.546Z,100409.80
2018-07-28T00:24:01.141Z,100410.31
2018-07-28T00:26:29.641Z,100403.46
2018-07-28T00:28:58.084Z,100402.52
2018-07-28T00:31:26.230Z,100401.82
2018-07-28T00:33:54.792Z,100394.09
2018-07-28T00:36:23.193Z,100391.02
2018-07-28T00:38:51.365Z,100389.44
2018-07-28T00:41:19.852Z,100385.70
2018-07-28T00:43:48.320Z,100387.95
2018-07-28T00:46:17.191Z,100388.94
2018-07-28T00:48:45.714Z,100380.66
2018-07-28T00:51:14.061Z,100380.81
2018-07-28T00:53:42.219Z,100378.80
2018-07-28T00:56:10.349Z,100383.80
2018-07-28T00:58:38.752Z,100374.55
2018-07-28T01:01:07.646Z,100375.61
2018-07-28T01:03:35.800Z,100370.29
2018-07-28T01:06:04.444Z,100374.55
2018-07-28T01:08:32.873Z,100371.78
2018-07-28T01:11:01.623Z,100373.36
2018-07-28T01:13:30.364Z,100376.13
2018-07-28T01:15:59.080Z,100374.15
2018-07-28T01:18:27.212Z,100369.69
2018-07-28T01:20:55.400Z,100367.53
2018-07-28T01:23:23.860Z,100361.45
2018-07-28T01:25:52.599Z,100366.89
2018-07-28T01:28:21.265Z,100355.94
2018-07-28T01:30:49.381Z,100355.73
2018-07-28T01:33:17.803Z,100350.41
2018-07-28T01:35:46.740Z,100349.11
2018-07-28T01:38:15.145Z,100337.48
2018-07-28T01:40:43.612Z,100337.41
2018-07-28T01:43:12.276Z,100336.70
2018-07-28T01:45:40.740Z,100327.41
2018-07-28T01:48:08.868Z,100339.38
2018-07-28T01:50:37.609Z,100330.79
2018-07-28T01:53:06.177Z,100326.34
2018-07-28T01:55:34.880Z,100325.23
2018-07-28T01:58:03.453Z,100317.15
2018-07-28T02:00:31.918Z,100314.23
2018-07-28T02:03:00.818Z,100304.84
2018-07-28T02:05:29.462Z,100286.31
2018-07-28T02:07:57.920Z,100303.73
2018-07-28T02:10:26.145Z,100305.94
2018-07-28T02:12:54.908Z,100299.68
2018-07-28T02:15:23.516Z,100302.13
2018-07-28T02:17:51.965Z,100294.00
2018-07-28T02:20:20.889Z,100289.23
2018-07-28T02:22:49.752Z,100279.94
2018-07-28T02:25:18.224Z,100290.88
2018-07-28T02:27:47.044Z,100288.52
2018-07-28T02:30:15.510Z,100283.48
2018-07-28T02:32:45.221Z,100281.45
2018-07-28T02:35:13.541Z,100280.46
2018-07-28T02:37:42.219Z,100274.20
2018-07-28T02:40:10.745Z,100271.84
2018-07-28T02:42:39.480Z,100267.03
2018-07-28T02:45:08.301Z,100265.42
2018-07-28T02:47:37.009Z,100261.20
2018-07-28T02:50:06.492Z,100253.60
2018-07-28T02:52:34.964Z,100251.27
2018-07-28T02:55:03.408Z,100247.92
2018-07-28T02:57:31.537Z,100241.18
2018-07-28T03:00:00.197Z,100241.76
2018-07-28T03:02:28.389Z,100235.33
2018-07-28T03:04:57.149Z,100233.47
2018-07-28T03:07:25.895Z,100227.64
2018-07-28T03:09:54.885Z,100227.41
2018-07-28T03:12:23.594Z,100226.50
2018-07-28T03:14:52.529Z,100223.66
2018-07-28T03:17:21.178Z,100211.38
2018-07-28T03:19:49.956Z,100205.55
2018-07-28T03:22:18.913Z,100210.00
2018-07-28T03:24:47.856Z,100216.77
2018-07-28T03:27:17.140Z,100215.98
2018-07-28T03:29:46.129Z,100207.02
2018-07-28T03:32:14.449Z,100204.28
2018-07-28T03:34:42.597Z,100199.35
2018-07-28T03:37:10.720Z,100199.78
2018-07-28T03:39:39.184Z,100198.48
2018-07-28T03:42:07.669Z,100192.81
2018-07-28T03:44:36.052Z,100194.21
2018-07-28T03:47:04.447Z,100193.41
2018-07-28T03:49:32.900Z,100182.87
2018-07-28T03:52:01.024Z,100188.80
2018-07-28T03:54:30.046Z,100188.48
2018-07-28T03:56:58.701Z,100183.30
2018-07-28T03:59:27.161Z,100184.91
2018-07-28T04:01:55.848Z,100181.02
2018-07-28T04:04:24.324Z,100183.31
2018-07-28T04:06:53.480Z,100182.58
2018-07-28T04:09:22.009Z,100186.48
2018-07-28T04:11:50.628Z,100171.99
2018-07-28T04:14:19.098Z,100180.48
2018-07-28T04:16:48.065Z,100186.16
2018-07-28T04:19:17.109Z,100184.66
2018-07-28T04:21:46.153Z,100176.73
2018-07-28T04:24:14.940Z,100184.66
2018-07-28T04:26:43.076Z,100183.08
2018-07-28T04:29:11.545Z,100183.57
2018-07-28T04:31:40.014Z,100179.29
2018-07-28T04:34:08.965Z,100178.86
2018-07-28T04:36:37.188Z,100166.03
2018-07-28T04:39:08.639Z,100172.92
2018-07-28T04:41:36.940Z,100169.62
2018-07-28T04:44:05.393Z,100167.92
2018-07-28T04:46:34.197Z,100164.11
2018-07-28T04:49:02.901Z,100168.56
2018-07-28T04:51:31.035Z,100160.13
2018-07-28T04:54:00.077Z,100161.39
2018-07-28T04:56:28.780Z,100151.89
2018-07-28T04:58:57.175Z,100148.74
2018-07-28T05:01:25.946Z,100145.27
2018-07-28T05:03:54.661Z,100144.41
2018-07-28T05:06:23.188Z,100135.23
2018-07-28T05:08:51.852Z,100129.73
2018-07-28T05:11:20.605Z,100133.62
2018-07-28T05:13:49.004Z,100130.12
2018-07-28T05:16:17.161Z,100132.56
2018-07-28T05:18:46.017Z,100128.04
2018-07-28T05:21:14.749Z,100120.92
2018-07-28T05:23:43.251Z,100112.66
2018-07-28T05:26:11.665Z,100113.92
2018-07-28T05:28:39.779Z,100116.72
2018-07-28T05:31:08.105Z,100111.92
2018-07-28T05:33:36.793Z,100115.36
2018-07-28T05:36:05.254Z,100108.30
2018-07-28T05:38:33.969Z,100112.67
2018-07-28T05:41:02.097Z,100120.54
2018-07-28T05:43:30.565Z,100125.34
2018-07-28T05:45:59.308Z,100114.55
2018-07-28T05:48:28.296Z,100112.17
2018-07-28T05:50:57.052Z,100105.36
2018-07-28T05:53:25.552Z,100100.78
2018-07-28T05:55:54.172Z,100104.37
2018-07-28T05:58:22.616Z,100097.41
2018-07-28T06:00:51.388Z,100094.05
2018-07-28T06:03:20.356Z,100107.21
2018-07-28T06:05:49.102Z,100108.66
2018-07-28T06:08:17.556Z,100113.34
2018-07-28T06:10:46.193Z,100113.91
2018-07-28T06:13:15.069Z,100118.09
2018-07-28T06:15:43.200Z,100124.77
2018-07-28T06:18:11.702Z,100131.06
2018-07-28T06:20:40.256Z,100136.64
2018-07-28T06:23:09.124Z,100135.75
2018-07-28T06:25:37.826Z,100139.28
2018-07-28T06:28:06.289Z,100130.21
2018-07-28T06:30:34.704Z,100131.31
2018-07-28T06:33:03.035Z,100138.42
2018-07-28T06:35:31.637Z,100146.56
2018-07-28T06:38:00.333Z,100158.88
2018-07-28T06:40:28.788Z,100132.07
2018-07-28T06:42:57.635Z,100137.12
2018-07-28T06:45:25.785Z,100132.84
2018-07-28T06:47:54.357Z,100127.00
2018-07-28T06:50:22.987Z,100127.91
2018-07-28T06:52:51.717Z,100127.93
2018-07-28T06:55:19.869Z,100115.80
2018-07-28T06:57:48.407Z,100108.89
2018-07-28T07:00:17.516Z,100123.62
2018-07-28T07:02:46.181Z,100144.92
2018-07-28T07:05:14.681Z,100144.70
2018-07-28T07:07:42.978Z,100138.33
2018-07-28T07:10:11.483Z,100133.42
2018-07-28T07:12:39.843Z,100133.34
2018-07-28T07:15:08.397Z,100129.69
2018-07-28T07:17:36.501Z,100122.91
2018-07-28T07:20:05.312Z,100118.61
2018-07-28T07:22:33.756Z,100121.41
2018-07-28T07:25:02.153Z,100125.13
2018-07-28T07:27:30.732Z,100124.36
2018-07-28T07:29:59.556Z,100117.12
2018-07-28T07:32:28.580Z,100109.95
2018-07-28T07:34:57.396Z,100119.58
2018-07-28T07:37:26.172Z,100121.61
2018-07-28T08:29:19.248Z,100051.13
2018-07-28T08:31:47.840Z,100057.13
2018-07-28T08:34:16.509Z,100061.97
2018-07-28T08:36:44.861Z,100060.82
2018-07-28T08:39:14.996Z,100056.34
2018-07-28T08:41:44.056Z,100051.66
2018-07-28T08:44:12.493Z,100050.31
2018-07-28T08:46:41.716Z,100049.83
2018-07-28T08:49:10.466Z,100037.14
2018-07-28T08:51:39.005Z,100042.20
2018-07-28T08:54:07.158Z,100042.00
2018-07-28T08:56:35.733Z,100048.22
2018-07-28T08:59:04.821Z,100037.34
2018-07-28T09:01:33.785Z,100042.66
2018-07-28T09:04:02.568Z,100036.25
2018-07-28T09:06:30.675Z,100042.73
2018-07-28T09:08:59.913Z,100051.66
2018-07-28T09:11:28.824Z,100056.97
2018-07-28T09:13:57.545Z,100055.86
2018-07-28T09:16:26.222Z,100060.87
2018-07-28T09:18:54.521Z,100063.67
2018-07-28T09:21:22.638Z,100062.83
2018-07-28T09:23:50.978Z,100069.81
2018-07-28T09:26:19.573Z,100067.03
2018-07-28T09:28:48.013Z,100064.52
2018-07-28T09:31:16.589Z,100069.81
2018-07-28T09:33:44.684Z,100069.52
2018-07-28T09:36:13.116Z,100068.62
2018-07-28T09:38:41.769Z,100075.31
2018-07-28T09:41:10.329Z,100082.06
2018-07-28T09:43:38.416Z,100072.31
2018-07-28T09:46:06.970Z,100075.97
2018-07-28T09:48:35.842Z,100072.60
2018-07-28T09:51:04.553Z,100079.56
2018-07-28T09:53:32.673Z,100089.06
2018-07-28T09:56:01.123Z,100088.49
2018-07-28T09:58:29.330Z,100081.76
2018-07-28T10:01:04.022Z,100086.52
2018-07-28T10:03:32.668Z,100097.44
2018-07-28T10:06:01.341Z,100096.64
2018-07-28T10:08:29.529Z,100093.27
2018-07-28T10:10:59.123Z,100095.70
2018-07-28T10:13:27.769Z,100099.85
2018-07-28T10:15:56.705Z,100092.52
2018-07-28T10:18:25.223Z,100109.53
2018-07-28T10:20:54.423Z,100107.75
2018-07-28T10:23:23.001Z,100113.27
2018-07-28T10:25:51.964Z,100104.83
2018-07-28T10:28:20.774Z,100113.81
2018-07-28T10:30:58.959Z,100118.59
2018-07-28T10:33:27.680Z,100117.52
2018-07-28T10:35:55.800Z,100118.22
2018-07-28T10:38:24.560Z,100134.16
2018-07-28T10:40:53.204Z,100137.53
2018-07-28T10:46:19.206Z,100150.53
2018-07-28T10:48:48.895Z,100149.89
2018-07-28T10:51:18.009Z,100166.03
2018-07-28T10:53:47.469Z,100174.83
2018-07-28T10:59:27.570Z,100189.95
2018-07-28T12:24:53.264Z,100230.39
2018-07-28T12:27:28.228Z,100243.22
2018-07-28T12:29:57.602Z,100252.12
2018-07-28T12:32:26.398Z,100230.72
2018-07-28T12:34:55.384Z,100241.45
2018-07-28T12:37:23.701Z,100247.27
2018-07-28T12:39:52.321Z,100242.13
2018-07-28T12:42:20.956Z,100236.36
2018-07-28T12:44:49.405Z,100249.03
2018-07-28T12:47:28.177Z,100239.77
2018-07-28T12:49:56.942Z,100241.75
2018-07-28T12:52:25.724Z,100243.30
2018-07-28T12:54:58.008Z,100246.81
2018-07-28T12:57:26.988Z,100244.57
2018-07-28T12:59:55.457Z,100245.47
2018-07-28T13:02:23.660Z,100239.70
2018-07-28T13:04:52.648Z,100243.19
2018-07-28T13:07:21.343Z,100244.19
2018-07-28T13:09:50.328Z,100237.74
2018-07-28T13:12:19.663Z,100231.23
2018-07-28T13:14:48.421Z,100221.34
2018-07-28T13:17:17.129Z,100207.03
2018-07-28T13:19:45.357Z,100212.63
2018-07-28T13:22:14.133Z,100202.13
2018-07-28T13:24:42.656Z,100209.09
2018-07-28T13:27:10.757Z,100205.51
2018-07-28T13:29:39.274Z,100203.41
2018-07-28T13:32:07.746Z,100200.70
2018-07-28T13:34:35.845Z,100195.14
2018-07-28T13:37:04.732Z,100173.30
2018-07-28T13:39:33.033Z,100188.16
2018-07-28T13:42:01.487Z,100191.30
2018-07-28T13:44:30.389Z,100189.71
2018-07-28T13:46:59.324Z,100185.41
2018-07-28T13:49:27.773Z,100189.85
2018-07-28T13:51:56.525Z,100181.32
2018-07-28T13:54:25.649Z,100181.78
2018-07-28T13:56:54.367Z,100185.89
2018-07-28T13:59:22.796Z,100187.27
2018-07-28T14:01:51.408Z,100194.11
2018-07-28T14:04:20.360Z,100189.14
2018-07-28T14:06:49.414Z,100201.05
2018-07-28T14:09:23.977Z,100202.17
2018-07-28T14:11:52.369Z,100206.91
2018-07-28T14:14:20.837Z,100212.42
2018-07-28T14:16:49.596Z,100216.62
2018-07-28T14:19:18.571Z,100207.06
2018-07-28T14:21:47.560Z,100226.13
2018-07-28T14:24:15.968Z,100235.91
2018-07-28T14:26:44.080Z,100232.36
2018-07-28T14:29:12.322Z,100242.30
2018-07-28T14:31:41.269Z,100241.81
2018-07-28T14:34:09.749Z,100228.84
2018-07-28T14:36:40.179Z,100229.88
2018-07-28T14:39:16.828Z,100234.80
2018-07-28T14:41:45.701Z,100232.00
2018-07-28T14:44:23.599Z,100239.13
2018-07-28T14:46:52.757Z,100246.89
2018-07-28T14:49:21.779Z,100250.05
2018-07-28T14:51:50.438Z,100252.06
2018-07-28T14:54:18.864Z,100251.69
2018-07-28T14:56:47.769Z,100258.64
2018-07-28T14:59:16.535Z,100257.59
2018-07-28T15:01:45.289Z,100259.16
2018-07-28T15:04:13.736Z,100261.15
2018-07-28T15:06:42.422Z,100255.58
2018-07-28T15:09:11.253Z,100265.06
2018-07-28T15:11:40.131Z,100271.19
2018-07-28T15:14:08.561Z,100286.05
2018-07-28T15:16:37.401Z,100286.94
2018-07-28T15:19:05.880Z,100290.52
2018-07-28T15:21:37.976Z,100308.76
2018-07-28T15:24:06.821Z,100312.32
2018-07-28T15:26:35.390Z,100314.54
2018-07-28T15:29:03.865Z,100312.00
2018-07-28T15:31:32.210Z,100319.12
2018-07-28T15:34:00.661Z,100326.55
2018-07-28T15:36:28.779Z,100322.41
2018-07-28T15:38:57.781Z,100326.40
2018-07-28T15:41:26.145Z,100320.35
2018-07-28T15:43:54.932Z,100319.41
2018-07-28T15:46:24.416Z,100321.44
2018-07-28T15:48:53.229Z,100325.91
2018-07-28T15:51:21.698Z,100334.84
2018-07-28T15:53:50.136Z,100332.44
2018-07-28T15:56:18.650Z,100333.66
2018-07-28T15:58:47.500Z,100331.71
2018-07-28T16:01:16.185Z,100328.99
2018-07-28T16:03:44.652Z,100326.53
2018-07-28T16:06:12.857Z,100322.91
2018-07-28T16:08:41.589Z,100318.89
2018-07-28T16:11:10.189Z,100308.84
2018-07-28T16:13:38.645Z,100303.88
2018-07-28T16:16:07.593Z,100285.30
2018-07-28T16:18:36.053Z,100283.53
2018-07-28T16:21:04.436Z,100288.08
2018-07-28T16:23:33.121Z,100286.16
2018-07-28T16:26:01.789Z,100295.34
2018-07-28T16:28:30.349Z,100295.05
2018-07-28T16:30:59.008Z,100312.78
2018-07-28T16:33:27.180Z,100322.22
2018-07-28T16:35:55.912Z,100326.02
2018-07-28T16:38:24.844Z,100321.20
2018-07-28T16:40:53.592Z,100318.28
2018-07-28T16:43:22.265Z,100321.95
2018-07-28T16:45:50.933Z,100326.45
2018-07-28T16:48:19.516Z,100337.03
2018-07-28T16:50:47.812Z,100404.58
2018-07-28T16:53:16.535Z,100404.43
2018-07-28T16:55:45.201Z,100421.84
2018-07-28T16:58:13.629Z,100456.21
2018-07-28T17:00:42.222Z,100465.59
2018-07-28T17:03:10.675Z,100474.75
2018-07-28T17:05:39.525Z,100498.29
2018-07-28T17:08:08.153Z,100510.25
2018-07-28T17:10:37.173Z,100526.59
2018-07-28T17:13:06.333Z,100531.78
2018-07-28T17:15:34.778Z,100543.53
2018-07-28T17:18:04.130Z,100536.27
2018-07-28T17:20:32.756Z,100504.72
2018-07-28T17:23:01.220Z,100503.51
2018-07-28T17:25:29.756Z,100519.63
2018-07-28T17:27:58.133Z,100523.84
2018-07-28T17:30:26.366Z,100526.30
2018-07-28T17:32:55.219Z,100529.69
2018-07-28T17:35:23.916Z,100527.87
2018-07-28T17:37:52.705Z,100542.58
2018-07-28T17:40:20.876Z,100548.90
2018-07-28T17:42:49.002Z,100560.58
2018-07-28T17:45:17.728Z,100551.97
2018-07-28T17:47:45.821Z,100538.05
2018-07-28T17:50:13.936Z,100532.65
2018-07-28T17:52:42.433Z,100518.97
2018-07-28T17:55:10.959Z,100522.94
2018-07-28T17:57:39.745Z,100540.33
2018-07-28T18:00:18.081Z,100536.07
2018-07-28T18:02:48.082Z,100545.00
2018-07-28T18:05:16.888Z,100564.64
2018-07-28T18:07:45.633Z,100567.48
2018-07-28T18:10:14.085Z,100569.68
2018-07-28T18:12:42.940Z,100580.44
2018-07-28T18:15:11.401Z,100578.09
2018-07-28T18:17:39.988Z,100589.12
2018-07-28T18:20:08.703Z,100597.14
2018-07-28T18:22:37.171Z,100606.15
2018-07-28T18:25:06.120Z,100614.70
2018-07-28T18:27:34.894Z,100610.92
2018-07-28T18:30:03.324Z,100617.39
2018-07-28T18:32:32.149Z,100631.19
2018-07-28T18:35:00.920Z,100631.06
2018-07-28T18:37:29.037Z,100638.75
2018-07-28T18:39:57.546Z,100639.50
2018-07-28T18:42:26.181Z,100629.89
2018-07-28T18:44:54.582Z,100633.22
2018-07-28T18:47:23.014Z,100636.05
2018-07-28T18:49:51.449Z,100635.27
2018-07-28T18:52:19.585Z,100646.78
2018-07-28T18:54:48.197Z,100641.92
2018-07-28T18:57:16.996Z,100638.30
2018-07-28T18:59:45.481Z,100654.95
2018-07-28T19:02:13.944Z,100656.19
2018-07-28T19:04:42.084Z,100653.52
2018-07-28T19:07:11.192Z,100656.52
2018-07-28T19:09:44.973Z,100657.35
2018-07-28T19:12:14.241Z,100662.13
2018-07-28T19:14:42.688Z,100660.81
2018-07-28T19:17:11.093Z,100655.29
2018-07-28T19:19:39.983Z,100651.72
2018-07-28T19:22:13.881Z,100656.34
2018-07-28T19:24:42.332Z,100663.50
2018-07-28T19:27:11.277Z,100673.48
2018-07-28T19:29:41.705Z,100688.11
2018-07-28T19:32:10.077Z,100698.63
2018-07-28T19:34:38.472Z,100708.14
2018-07-28T19:37:12.112Z,100714.38
2018-07-28T19:39:40.562Z,100726.09
2018-07-28T19:42:14.281Z,100727.39
2018-07-28T19:44:42.755Z,100738.41
2018-07-28T19:47:10.886Z,100748.81
2018-07-28T19:49:39.405Z,100750.77
2018-07-28T19:52:09.337Z,100756.18
2018-07-28T19:54:38.317Z,100741.48
2018-07-28T19:57:06.740Z,100761.50
2018-07-28T19:59:35.629Z,100763.53
2018-07-28T20:02:04.028Z,100764.50
2018-07-28T20:04:32.492Z,100767.56
2018-07-28T20:07:01.444Z,100764.97
2018-07-28T20:09:29.858Z,100770.44
2018-07-28T20:11:58.485Z,100775.83
2018-07-28T20:14:27.164Z,100779.48
2018-07-28T20:16:55.703Z,100785.64
2018-07-28T20:19:24.348Z,100805.80
2018-07-28T20:21:52.921Z,100815.73
2018-07-28T20:24:21.284Z,100831.55
2018-07-28T20:26:49.922Z,100824.42
2018-07-28T20:29:18.237Z,100827.28
2018-07-28T20:31:46.872Z,100825.79
2018-07-28T20:34:14.969Z,100824.42
2018-07-28T20:36:43.424Z,100839.01
2018-07-28T20:39:12.728Z,100842.91
2018-07-28T20:41:41.185Z,100833.42
2018-07-28T20:44:09.309Z,100839.67
2018-07-28T20:46:38.078Z,100846.75
2018-07-28T20:49:06.927Z,100853.94
2018-07-28T20:51:35.575Z,100847.72
2018-07-28T20:54:04.201Z,100846.95
2018-07-28T20:56:32.880Z,100843.55
2018-07-28T20:59:01.497Z,100857.67
2018-07-28T21:01:30.080Z,100860.30
2018-07-28T21:03:58.172Z,100866.52
2018-07-28T21:06:26.625Z,100861.09
2018-07-28T21:08:55.268Z,100866.09
2018-07-28T21:11:23.753Z,100864.47
2018-07-28T21:13:52.132Z,100872.59
2018-07-28T21:16:20.607Z,100880.14
2018-07-28T21:18:49.460Z,100882.34
2018-07-28T21:21:17.568Z,100886.39
2018-07-28T21:23:45.969Z,100888.73
2018-07-28T21:26:14.165Z,100882.36
2018-07-28T21:28:42.541Z,100885.00
2018-07-28T21:31:11.283Z,100887.80
2018-07-28T21:33:39.734Z,100888.69
2018-07-28T21:36:08.076Z,100890.07
2018-07-28T21:38:36.544Z,100888.21
2018-07-28T21:41:05.209Z,100893.35
2018-07-28T21:43:33.344Z,100888.36
2018-07-28T21:46:02.600Z,100891.77
2018-07-28T21:48:31.073Z,100887.59
2018-07-28T21:51:00.190Z,100898.30
2018-07-28T21:53:28.528Z,100903.53
2018-07-28T21:55:57.293Z,100899.88
2018-07-28T21:58:25.420Z,100899.67
2018-07-28T22:01:03.119Z,100897.75
2018-07-28T22:03:31.321Z,100907.01
2018-07-28T22:06:00.456Z,100909.88
2018-07-28T22:08:29.225Z,100899.25
2018-07-28T22:10:58.043Z,100915.48
2018-07-28T22:13:27.245Z,100917.48
2018-07-28T22:15:56.409Z,100921.54
2018-07-28T22:18:24.849Z,100927.80
2018-07-28T22:20:53.629Z,100927.73
2018-07-28T22:23:22.369Z,100931.02
2018-07-28T22:25:51.025Z,100930.59
2018-07-28T22:28:19.471Z,100930.32
2018-07-28T22:30:48.455Z,100929.88
2018-07-28T22:33:16.568Z,100938.39
2018-07-28T22:35:45.353Z,100937.85
2018-07-28T22:38:13.733Z,100946.61
2018-07-28T22:40:42.131Z,100952.73
2018-07-28T22:43:10.787Z,100950.57
2018-07-28T22:45:40.179Z,100959.58
2018-07-28T22:48:08.316Z,100953.17
2018-07-28T22:50:36.435Z,100956.53
2018-07-28T22:53:04.584Z,100963.95
2018-07-28T22:55:33.037Z,100965.16
2018-07-28T22:58:01.833Z,100974.93
2018-07-28T23:00:30.456Z,100986.88
2018-07-28T23:02:59.481Z,100984.62
2018-07-28T23:05:28.449Z,100983.88
2018-07-28T23:07:56.873Z,100982.97
2018-07-28T23:10:25.898Z,100984.67
2018-07-28T23:12:54.904Z,100987.91
2018-07-28T23:15:23.221Z,100992.86
2018-07-28T23:17:51.361Z,100993.84
2018-07-28T23:20:19.752Z,101001.72
2018-07-28T23:22:49.323Z,100995.70
2018-07-28T23:25:17.869Z,100997.84
2018-07-28T23:27:46.753Z,100990.59
2018-07-28T23:30:28.452Z,100999.22
2018-07-28T23:32:57.011Z,100999.23
2018-07-28T23:35:25.253Z,100997.38
2018-07-28T23:37:53.862Z,101001.12
2018-07-28T23:40:22.264Z,101001.96
2018-07-28T23:42:50.886Z,101002.98
2018-07-28T23:45:19.669Z,100999.34
2018-07-28T23:47:48.640Z,101004.94
2018-07-28T23:50:17.610Z,101004.40
2018-07-28T23:52:46.585Z,101009.32
2018-07-28T23:55:15.041Z,101011.67
2018-07-28T23:57:43.406Z,101011.64
